sensor_id;sensor_type;location;lat;lon;timestamp;temperature;humidity
10678;DHT22;5387;48.722;9.110;2022-11-20T00:01:19;4.70;99.90
10678;DHT22;5387;48.722;9.110;2022-11-20T00:03:46;4.70;99.90
10678;DHT22;5387;48.722;9.110;2022-11-20T00:06:16;4.70;99.90
10678;DHT22;5387;48.722;9.110;2022-11-20T00:08:44;4.70;99.90
10678;DHT22;5387;48.722;9.110;2022-11-20T00:11:12;4.70;99.90
10678;DHT22;5387;48.722;9.110;2022-11-20T00:13:39;4.70;99.90
10678;DHT22;5387;48.722;9.110;2022-11-20T00:16:08;4.80;99.90
10678;DHT22;5387;48.722;9.110;2022-11-20T00:18:35;4.70;99.90
10678;DHT22;5387;48.722;9.110;2022-11-20T00:21:03;4.70;99.90
10678;DHT22;5387;48.722;9.110;2022-11-20T00:23:31;4.70;99.90
10678;DHT22;5387;48.722;9.110;2022-11-20T00:26:02;4.70;99.90
10678;DHT22;5387;48.722;9.110;2022-11-20T00:28:29;4.70;99.90
10678;DHT22;5387;48.722;9.110;2022-11-20T00:31:01;4.70;99.90
10678;DHT22;5387;48.722;9.110;2022-11-20T00:33:28;4.70;99.90
10678;DHT22;5387;48.722;9.110;2022-11-20T00:35:59;4.70;99.90
10678;DHT22;5387;48.722;9.110;2022-11-20T00:38:27;4.70;99.90
10678;DHT22;5387;48.722;9.110;2022-11-20T00:40:56;4.70;99.90
10678;DHT22;5387;48.722;9.110;2022-11-20T00:43:24;4.70;99.90
10678;DHT22;5387;48.722;9.110;2022-11-20T00:48:22;4.70;99.90
10678;DHT22;5387;48.722;9.110;2022-11-20T00:50:49;4.70;99.90
10678;DHT22;5387;48.722;9.110;2022-11-20T00:53:15;4.60;99.90
10678;DHT22;5387;48.722;9.110;2022-11-20T00:55:42;4.70;99.90
10678;DHT22;5387;48.722;9.110;2022-11-20T00:58:10;4.70;99.90
10678;DHT22;5387;48.722;9.110;2022-11-20T01:00:37;4.60;99.90
10678;DHT22;5387;48.722;9.110;2022-11-20T01:03:04;4.50;99.90
10678;DHT22;5387;48.722;9.110;2022-11-20T01:05:34;4.50;99.90
10678;DHT22;5387;48.722;9.110;2022-11-20T01:08:01;4.50;99.90
10678;DHT22;5387;48.722;9.110;2022-11-20T01:10:28;4.40;99.90
10678;DHT22;5387;48.722;9.110;2022-11-20T01:12:55;4.40;99.90
10678;DHT22;5387;48.722;9.110;2022-11-20T01:15:37;4.40;99.90
10678;DHT22;5387;48.722;9.110;2022-11-20T01:18:04;4.60;99.90
10678;DHT22;5387;48.722;9.110;2022-11-20T01:20:34;4.30;99.90
10678;DHT22;5387;48.722;9.110;2022-11-20T01:23:01;4.30;99.90
10678;DHT22;5387;48.722;9.110;2022-11-20T01:25:28;4.20;99.90
10678;DHT22;5387;48.722;9.110;2022-11-20T01:27:55;4.30;99.90
10678;DHT22;5387;48.722;9.110;2022-11-20T01:30:22;4.20;99.90
10678;DHT22;5387;48.722;9.110;2022-11-20T01:32:50;4.10;99.90
10678;DHT22;5387;48.722;9.110;2022-11-20T01:35:17;4.10;99.90
10678;DHT22;5387;48.722;9.110;2022-11-20T01:37:44;4.10;99.90
10678;DHT22;5387;48.722;9.110;2022-11-20T01:40:11;4.00;99.90
10678;DHT22;5387;48.722;9.110;2022-11-20T01:42:38;4.00;99.90
10678;DHT22;5387;48.722;9.110;2022-11-20T01:48:36;3.90;99.90
10678;DHT22;5387;48.722;9.110;2022-11-20T01:51:06;3.80;99.90
10678;DHT22;5387;48.722;9.110;2022-11-20T01:53:37;3.70;99.90
10678;DHT22;5387;48.722;9.110;2022-11-20T01:56:06;3.60;99.90
10678;DHT22;5387;48.722;9.110;2022-11-20T01:58:37;3.60;99.90
10678;DHT22;5387;48.722;9.110;2022-11-20T02:01:06;3.60;99.90
10678;DHT22;5387;48.722;9.110;2022-11-20T02:03:34;3.60;99.90
10678;DHT22;5387;48.722;9.110;2022-11-20T02:06:08;3.80;99.90
10678;DHT22;5387;48.722;9.110;2022-11-20T02:08:37;3.60;99.90
10678;DHT22;5387;48.722;9.110;2022-11-20T02:11:04;3.70;99.90
10678;DHT22;5387;48.722;9.110;2022-11-20T02:13:31;3.70;99.90
10678;DHT22;5387;48.722;9.110;2022-11-20T02:16:19;3.70;99.90
10678;DHT22;5387;48.722;9.110;2022-11-20T02:18:48;3.60;99.90
10678;DHT22;5387;48.722;9.110;2022-11-20T02:21:27;3.60;99.90
10678;DHT22;5387;48.722;9.110;2022-11-20T02:24:03;3.60;99.90
10678;DHT22;5387;48.722;9.110;2022-11-20T02:26:32;3.50;99.90
10678;DHT22;5387;48.722;9.110;2022-11-20T02:29:00;3.50;99.90
10678;DHT22;5387;48.722;9.110;2022-11-20T02:31:28;3.40;99.90
10678;DHT22;5387;48.722;9.110;2022-11-20T02:33:56;3.50;99.90
10678;DHT22;5387;48.722;9.110;2022-11-20T02:36:25;3.50;99.90
10678;DHT22;5387;48.722;9.110;2022-11-20T02:38:52;3.60;99.90
10678;DHT22;5387;48.722;9.110;2022-11-20T02:41:21;3.60;99.90
10678;DHT22;5387;48.722;9.110;2022-11-20T02:43:47;3.80;99.90
10678;DHT22;5387;48.722;9.110;2022-11-20T02:46:14;3.70;99.90
10678;DHT22;5387;48.722;9.110;2022-11-20T02:48:41;3.70;99.90
10678;DHT22;5387;48.722;9.110;2022-11-20T02:51:08;3.80;99.90
10678;DHT22;5387;48.722;9.110;2022-11-20T02:53:35;3.80;99.90
10678;DHT22;5387;48.722;9.110;2022-11-20T02:56:01;3.90;99.90
10678;DHT22;5387;48.722;9.110;2022-11-20T02:58:30;4.00;99.90
10678;DHT22;5387;48.722;9.110;2022-11-20T03:00:56;3.90;99.90
10678;DHT22;5387;48.722;9.110;2022-11-20T03:03:23;4.00;99.90
10678;DHT22;5387;48.722;9.110;2022-11-20T03:05:50;4.00;99.90
10678;DHT22;5387;48.722;9.110;2022-11-20T03:08:17;4.10;99.90
10678;DHT22;5387;48.722;9.110;2022-11-20T03:10:44;4.10;99.90
10678;DHT22;5387;48.722;9.110;2022-11-20T03:13:11;4.10;99.90
10678;DHT22;5387;48.722;9.110;2022-11-20T03:15:39;4.20;99.90
10678;DHT22;5387;48.722;9.110;2022-11-20T03:18:05;4.30;99.90
10678;DHT22;5387;48.722;9.110;2022-11-20T03:20:33;4.20;99.90
10678;DHT22;5387;48.722;9.110;2022-11-20T03:23:00;4.20;99.90
10678;DHT22;5387;48.722;9.110;2022-11-20T03:25:27;4.10;99.90
10678;DHT22;5387;48.722;9.110;2022-11-20T03:27:54;4.10;99.90
10678;DHT22;5387;48.722;9.110;2022-11-20T03:30:22;4.00;99.90
10678;DHT22;5387;48.722;9.110;2022-11-20T03:32:52;4.00;99.90
10678;DHT22;5387;48.722;9.110;2022-11-20T03:35:20;3.90;99.90
10678;DHT22;5387;48.722;9.110;2022-11-20T03:37:47;3.90;99.90
10678;DHT22;5387;48.722;9.110;2022-11-20T03:40:14;3.80;99.90
10678;DHT22;5387;48.722;9.110;2022-11-20T03:42:41;3.80;99.90
10678;DHT22;5387;48.722;9.110;2022-11-20T03:45:14;3.70;99.90
10678;DHT22;5387;48.722;9.110;2022-11-20T03:47:41;3.70;99.90
10678;DHT22;5387;48.722;9.110;2022-11-20T03:50:11;3.60;99.90
10678;DHT22;5387;48.722;9.110;2022-11-20T03:52:39;3.60;99.90
10678;DHT22;5387;48.722;9.110;2022-11-20T03:55:06;3.50;99.90
10678;DHT22;5387;48.722;9.110;2022-11-20T03:57:33;3.50;99.90
10678;DHT22;5387;48.722;9.110;2022-11-20T04:00:00;3.40;99.90
10678;DHT22;5387;48.722;9.110;2022-11-20T04:02:27;3.40;99.90
10678;DHT22;5387;48.722;9.110;2022-11-20T04:04:54;3.40;99.90
10678;DHT22;5387;48.722;9.110;2022-11-20T04:07:22;3.40;99.90
10678;DHT22;5387;48.722;9.110;2022-11-20T04:09:49;3.40;99.90
10678;DHT22;5387;48.722;9.110;2022-11-20T04:12:15;3.40;99.90
10678;DHT22;5387;48.722;9.110;2022-11-20T04:14:42;3.30;99.90
10678;DHT22;5387;48.722;9.110;2022-11-20T04:17:09;3.40;99.90
10678;DHT22;5387;48.722;9.110;2022-11-20T04:19:36;3.30;99.90
10678;DHT22;5387;48.722;9.110;2022-11-20T04:22:03;3.30;99.90
10678;DHT22;5387;48.722;9.110;2022-11-20T04:24:31;3.30;99.90
10678;DHT22;5387;48.722;9.110;2022-11-20T04:26:58;3.30;99.90
10678;DHT22;5387;48.722;9.110;2022-11-20T04:29:24;3.30;99.90
10678;DHT22;5387;48.722;9.110;2022-11-20T04:31:51;3.40;99.90
10678;DHT22;5387;48.722;9.110;2022-11-20T04:34:18;3.40;99.90
10678;DHT22;5387;48.722;9.110;2022-11-20T04:36:45;3.50;99.90
10678;DHT22;5387;48.722;9.110;2022-11-20T04:39:13;3.50;99.90
10678;DHT22;5387;48.722;9.110;2022-11-20T04:41:42;3.60;99.90
10678;DHT22;5387;48.722;9.110;2022-11-20T04:44:09;3.60;99.90
10678;DHT22;5387;48.722;9.110;2022-11-20T04:46:37;3.60;99.90
10678;DHT22;5387;48.722;9.110;2022-11-20T04:49:05;3.70;99.90
10678;DHT22;5387;48.722;9.110;2022-11-20T04:51:32;3.60;99.90
10678;DHT22;5387;48.722;9.110;2022-11-20T04:53:59;3.70;99.90
10678;DHT22;5387;48.722;9.110;2022-11-20T04:56:26;3.70;99.90
10678;DHT22;5387;48.722;9.110;2022-11-20T04:58:54;3.70;99.90
10678;DHT22;5387;48.722;9.110;2022-11-20T05:01:23;3.80;99.90
10678;DHT22;5387;48.722;9.110;2022-11-20T05:03:50;3.80;99.90
10678;DHT22;5387;48.722;9.110;2022-11-20T05:06:18;3.80;99.90
10678;DHT22;5387;48.722;9.110;2022-11-20T05:08:45;3.80;99.90
10678;DHT22;5387;48.722;9.110;2022-11-20T05:11:14;4.10;99.90
10678;DHT22;5387;48.722;9.110;2022-11-20T05:13:41;4.00;99.90
10678;DHT22;5387;48.722;9.110;2022-11-20T05:16:11;4.00;99.90
10678;DHT22;5387;48.722;9.110;2022-11-20T05:18:39;4.10;99.90
10678;DHT22;5387;48.722;9.110;2022-11-20T05:21:06;4.10;99.90
10678;DHT22;5387;48.722;9.110;2022-11-20T05:23:34;4.30;99.90
10678;DHT22;5387;48.722;9.110;2022-11-20T05:26:01;4.20;99.90
10678;DHT22;5387;48.722;9.110;2022-11-20T05:28:29;4.30;99.90
10678;DHT22;5387;48.722;9.110;2022-11-20T05:31:04;4.30;99.90
10678;DHT22;5387;48.722;9.110;2022-11-20T05:33:32;4.30;99.90
10678;DHT22;5387;48.722;9.110;2022-11-20T05:35:59;4.30;99.90
10678;DHT22;5387;48.722;9.110;2022-11-20T05:38:26;4.30;99.90
10678;DHT22;5387;48.722;9.110;2022-11-20T05:40:53;4.10;99.90
10678;DHT22;5387;48.722;9.110;2022-11-20T05:43:20;4.30;99.90
10678;DHT22;5387;48.722;9.110;2022-11-20T05:45:52;4.50;99.90
10678;DHT22;5387;48.722;9.110;2022-11-20T05:48:19;4.40;99.90
10678;DHT22;5387;48.722;9.110;2022-11-20T05:50:47;4.40;99.90
10678;DHT22;5387;48.722;9.110;2022-11-20T05:53:14;4.40;99.90
10678;DHT22;5387;48.722;9.110;2022-11-20T05:55:41;4.50;99.90
10678;DHT22;5387;48.722;9.110;2022-11-20T05:58:08;4.80;99.90
10678;DHT22;5387;48.722;9.110;2022-11-20T06:00:35;4.60;99.90
10678;DHT22;5387;48.722;9.110;2022-11-20T06:03:02;4.60;99.90
10678;DHT22;5387;48.722;9.110;2022-11-20T06:05:29;4.60;99.90
10678;DHT22;5387;48.722;9.110;2022-11-20T06:07:57;4.60;99.90
10678;DHT22;5387;48.722;9.110;2022-11-20T06:10:24;4.70;99.90
10678;DHT22;5387;48.722;9.110;2022-11-20T06:12:51;4.80;99.90
10678;DHT22;5387;48.722;9.110;2022-11-20T06:15:18;4.80;99.90
10678;DHT22;5387;48.722;9.110;2022-11-20T06:17:44;4.70;99.90
10678;DHT22;5387;48.722;9.110;2022-11-20T06:20:11;4.80;99.90
10678;DHT22;5387;48.722;9.110;2022-11-20T06:22:38;4.90;99.90
10678;DHT22;5387;48.722;9.110;2022-11-20T06:25:07;4.90;99.90
10678;DHT22;5387;48.722;9.110;2022-11-20T06:27:34;4.80;99.90
10678;DHT22;5387;48.722;9.110;2022-11-20T06:30:01;4.90;99.90
10678;DHT22;5387;48.722;9.110;2022-11-20T06:32:27;4.80;99.90
10678;DHT22;5387;48.722;9.110;2022-11-20T06:34:54;4.90;99.90
10678;DHT22;5387;48.722;9.110;2022-11-20T06:37:21;4.80;99.90
10678;DHT22;5387;48.722;9.110;2022-11-20T06:39:48;4.80;99.90
10678;DHT22;5387;48.722;9.110;2022-11-20T06:42:16;4.90;99.90
10678;DHT22;5387;48.722;9.110;2022-11-20T06:44:43;4.80;99.90
10678;DHT22;5387;48.722;9.110;2022-11-20T06:47:10;4.80;99.90
10678;DHT22;5387;48.722;9.110;2022-11-20T06:49:37;4.70;99.90
10678;DHT22;5387;48.722;9.110;2022-11-20T06:52:04;4.80;99.90
10678;DHT22;5387;48.722;9.110;2022-11-20T06:54:31;4.80;99.90
10678;DHT22;5387;48.722;9.110;2022-11-20T06:56:57;4.70;99.90
10678;DHT22;5387;48.722;9.110;2022-11-20T06:59:25;4.70;99.90
10678;DHT22;5387;48.722;9.110;2022-11-20T07:01:52;4.60;99.90
10678;DHT22;5387;48.722;9.110;2022-11-20T07:04:19;4.70;99.90
10678;DHT22;5387;48.722;9.110;2022-11-20T07:06:46;4.70;99.90
10678;DHT22;5387;48.722;9.110;2022-11-20T07:09:13;4.80;99.90
10678;DHT22;5387;48.722;9.110;2022-11-20T07:11:40;4.80;99.90
10678;DHT22;5387;48.722;9.110;2022-11-20T07:14:06;4.80;99.90
10678;DHT22;5387;48.722;9.110;2022-11-20T07:16:35;4.80;99.90
10678;DHT22;5387;48.722;9.110;2022-11-20T07:19:01;4.80;99.90
10678;DHT22;5387;48.722;9.110;2022-11-20T07:21:28;4.80;99.90
10678;DHT22;5387;48.722;9.110;2022-11-20T07:23:55;4.80;99.90
10678;DHT22;5387;48.722;9.110;2022-11-20T07:26:22;4.80;99.90
10678;DHT22;5387;48.722;9.110;2022-11-20T07:28:49;4.80;99.90
10678;DHT22;5387;48.722;9.110;2022-11-20T07:31:15;4.80;99.90
10678;DHT22;5387;48.722;9.110;2022-11-20T07:33:44;4.80;99.90
10678;DHT22;5387;48.722;9.110;2022-11-20T07:36:10;4.90;99.90
10678;DHT22;5387;48.722;9.110;2022-11-20T07:38:37;4.80;99.90
10678;DHT22;5387;48.722;9.110;2022-11-20T07:41:04;4.90;99.90
10678;DHT22;5387;48.722;9.110;2022-11-20T07:43:31;4.80;99.90
10678;DHT22;5387;48.722;9.110;2022-11-20T07:45:58;4.90;99.90
10678;DHT22;5387;48.722;9.110;2022-11-20T07:48:25;4.80;99.90
10678;DHT22;5387;48.722;9.110;2022-11-20T07:50:55;4.90;99.90
10678;DHT22;5387;48.722;9.110;2022-11-20T07:53:22;5.10;99.90
10678;DHT22;5387;48.722;9.110;2022-11-20T07:55:49;5.10;99.90
10678;DHT22;5387;48.722;9.110;2022-11-20T07:58:17;5.20;99.90
10678;DHT22;5387;48.722;9.110;2022-11-20T08:00:44;5.30;99.90
10678;DHT22;5387;48.722;9.110;2022-11-20T08:03:11;5.30;99.90
10678;DHT22;5387;48.722;9.110;2022-11-20T08:05:38;5.40;99.90
10678;DHT22;5387;48.722;9.110;2022-11-20T08:08:06;5.40;99.90
10678;DHT22;5387;48.722;9.110;2022-11-20T08:10:33;5.50;99.90
10678;DHT22;5387;48.722;9.110;2022-11-20T08:13:00;5.60;99.90
10678;DHT22;5387;48.722;9.110;2022-11-20T08:15:48;5.70;99.90
10678;DHT22;5387;48.722;9.110;2022-11-20T08:18:16;5.70;99.90
10678;DHT22;5387;48.722;9.110;2022-11-20T08:20:43;5.80;99.90
10678;DHT22;5387;48.722;9.110;2022-11-20T08:23:12;5.80;99.90
10678;DHT22;5387;48.722;9.110;2022-11-20T08:25:39;5.90;99.90
10678;DHT22;5387;48.722;9.110;2022-11-20T08:28:08;6.00;99.90
10678;DHT22;5387;48.722;9.110;2022-11-20T08:30:35;6.00;99.90
10678;DHT22;5387;48.722;9.110;2022-11-20T08:33:04;6.00;99.90
10678;DHT22;5387;48.722;9.110;2022-11-20T08:35:33;6.00;99.90
10678;DHT22;5387;48.722;9.110;2022-11-20T08:38:00;6.20;99.90
10678;DHT22;5387;48.722;9.110;2022-11-20T08:40:28;6.10;99.90
10678;DHT22;5387;48.722;9.110;2022-11-20T08:42:55;6.20;99.90
10678;DHT22;5387;48.722;9.110;2022-11-20T08:45:22;6.40;99.90
10678;DHT22;5387;48.722;9.110;2022-11-20T08:47:49;6.40;99.90
10678;DHT22;5387;48.722;9.110;2022-11-20T08:50:16;6.50;99.90
10678;DHT22;5387;48.722;9.110;2022-11-20T08:52:43;6.40;99.90
10678;DHT22;5387;48.722;9.110;2022-11-20T08:55:10;6.40;99.90
10678;DHT22;5387;48.722;9.110;2022-11-20T08:57:39;6.50;99.90
10678;DHT22;5387;48.722;9.110;2022-11-20T09:00:07;6.60;99.90
10678;DHT22;5387;48.722;9.110;2022-11-20T09:02:34;6.70;99.90
10678;DHT22;5387;48.722;9.110;2022-11-20T09:05:01;6.60;99.90
10678;DHT22;5387;48.722;9.110;2022-11-20T09:07:28;6.60;99.90
10678;DHT22;5387;48.722;9.110;2022-11-20T09:09:56;6.60;99.90
10678;DHT22;5387;48.722;9.110;2022-11-20T09:12:23;6.70;99.90
10678;DHT22;5387;48.722;9.110;2022-11-20T09:14:51;6.70;99.90
10678;DHT22;5387;48.722;9.110;2022-11-20T09:17:18;6.60;99.90
10678;DHT22;5387;48.722;9.110;2022-11-20T09:19:46;6.40;99.90
10678;DHT22;5387;48.722;9.110;2022-11-20T09:22:13;6.40;99.90
10678;DHT22;5387;48.722;9.110;2022-11-20T09:24:40;6.50;99.90
10678;DHT22;5387;48.722;9.110;2022-11-20T09:27:08;6.50;99.90
10678;DHT22;5387;48.722;9.110;2022-11-20T09:29:35;6.60;99.90
10678;DHT22;5387;48.722;9.110;2022-11-20T09:32:04;6.60;99.90
10678;DHT22;5387;48.722;9.110;2022-11-20T09:34:31;6.50;99.90
10678;DHT22;5387;48.722;9.110;2022-11-20T09:36:58;6.70;99.90
10678;DHT22;5387;48.722;9.110;2022-11-20T09:39:25;6.50;99.90
10678;DHT22;5387;48.722;9.110;2022-11-20T09:45:18;6.50;99.90
10678;DHT22;5387;48.722;9.110;2022-11-20T09:48:00;6.40;99.90
10678;DHT22;5387;48.722;9.110;2022-11-20T09:50:32;6.40;99.90
10678;DHT22;5387;48.722;9.110;2022-11-20T09:53:11;6.50;99.90
10678;DHT22;5387;48.722;9.110;2022-11-20T09:55:39;6.50;99.90
10678;DHT22;5387;48.722;9.110;2022-11-20T09:58:07;6.40;99.90
10678;DHT22;5387;48.722;9.110;2022-11-20T10:00:35;6.30;99.90
10678;DHT22;5387;48.722;9.110;2022-11-20T10:03:13;6.40;99.90
10678;DHT22;5387;48.722;9.110;2022-11-20T10:05:44;6.30;99.90
10678;DHT22;5387;48.722;9.110;2022-11-20T10:08:16;6.40;99.90
10678;DHT22;5387;48.722;9.110;2022-11-20T10:10:46;6.40;99.90
10678;DHT22;5387;48.722;9.110;2022-11-20T10:13:31;6.30;99.90
10678;DHT22;5387;48.722;9.110;2022-11-20T10:16:14;6.40;99.90
10678;DHT22;5387;48.722;9.110;2022-11-20T10:18:53;6.60;99.90
10678;DHT22;5387;48.722;9.110;2022-11-20T10:21:29;6.60;99.90
10678;DHT22;5387;48.722;9.110;2022-11-20T10:24:20;6.60;99.90
10678;DHT22;5387;48.722;9.110;2022-11-20T10:26:58;6.50;99.90
10678;DHT22;5387;48.722;9.110;2022-11-20T10:29:32;6.50;99.90
10678;DHT22;5387;48.722;9.110;2022-11-20T10:32:02;6.60;99.90
10678;DHT22;5387;48.722;9.110;2022-11-20T10:34:38;6.60;99.90
10678;DHT22;5387;48.722;9.110;2022-11-20T10:37:14;6.50;99.90
10678;DHT22;5387;48.722;9.110;2022-11-20T10:39:47;6.50;99.90
10678;DHT22;5387;48.722;9.110;2022-11-20T10:42:24;6.30;99.90
10678;DHT22;5387;48.722;9.110;2022-11-20T10:44:58;6.20;99.90
10678;DHT22;5387;48.722;9.110;2022-11-20T10:47:30;6.00;99.90
10678;DHT22;5387;48.722;9.110;2022-11-20T10:50:02;5.90;99.90
10678;DHT22;5387;48.722;9.110;2022-11-20T10:52:36;6.00;99.90
10678;DHT22;5387;48.722;9.110;2022-11-20T10:55:15;6.00;99.90
10678;DHT22;5387;48.722;9.110;2022-11-20T10:57:52;6.10;99.90
10678;DHT22;5387;48.722;9.110;2022-11-20T11:00:21;6.00;99.90
10678;DHT22;5387;48.722;9.110;2022-11-20T11:02:49;6.00;99.90
10678;DHT22;5387;48.722;9.110;2022-11-20T11:05:33;6.10;99.90
10678;DHT22;5387;48.722;9.110;2022-11-20T11:08:03;6.20;99.90
10678;DHT22;5387;48.722;9.110;2022-11-20T11:10:36;6.40;99.90
10678;DHT22;5387;48.722;9.110;2022-11-20T11:13:06;6.50;99.90
10678;DHT22;5387;48.722;9.110;2022-11-20T11:15:38;6.60;99.90
10678;DHT22;5387;48.722;9.110;2022-11-20T11:18:09;6.80;99.90
10678;DHT22;5387;48.722;9.110;2022-11-20T11:20:37;6.90;99.90
10678;DHT22;5387;48.722;9.110;2022-11-20T11:23:04;6.90;99.90
10678;DHT22;5387;48.722;9.110;2022-11-20T11:25:33;6.70;99.90
10678;DHT22;5387;48.722;9.110;2022-11-20T11:28:02;6.70;99.90
10678;DHT22;5387;48.722;9.110;2022-11-20T11:30:39;6.60;99.90
10678;DHT22;5387;48.722;9.110;2022-11-20T11:33:09;6.50;99.90
10678;DHT22;5387;48.722;9.110;2022-11-20T11:35:45;6.50;99.90
10678;DHT22;5387;48.722;9.110;2022-11-20T11:38:15;6.50;99.90
10678;DHT22;5387;48.722;9.110;2022-11-20T11:40:43;6.70;99.90
10678;DHT22;5387;48.722;9.110;2022-11-20T11:43:17;6.80;99.90
10678;DHT22;5387;48.722;9.110;2022-11-20T11:46:00;7.00;99.90
10678;DHT22;5387;48.722;9.110;2022-11-20T11:48:27;7.30;99.90
10678;DHT22;5387;48.722;9.110;2022-11-20T11:50:55;7.50;99.90
10678;DHT22;5387;48.722;9.110;2022-11-20T11:53:23;7.50;99.90
10678;DHT22;5387;48.722;9.110;2022-11-20T11:55:56;7.40;99.90
10678;DHT22;5387;48.722;9.110;2022-11-20T11:58:34;7.40;99.90
10678;DHT22;5387;48.722;9.110;2022-11-20T12:01:17;7.60;99.90
10678;DHT22;5387;48.722;9.110;2022-11-20T12:03:52;7.60;99.90
10678;DHT22;5387;48.722;9.110;2022-11-20T12:06:23;7.70;99.90
10678;DHT22;5387;48.722;9.110;2022-11-20T12:08:55;7.70;99.90
10678;DHT22;5387;48.722;9.110;2022-11-20T12:11:30;7.80;99.90
10678;DHT22;5387;48.722;9.110;2022-11-20T12:14:04;7.80;99.90
10678;DHT22;5387;48.722;9.110;2022-11-20T12:16:38;8.20;99.90
10678;DHT22;5387;48.722;9.110;2022-11-20T12:19:08;8.20;99.90
10678;DHT22;5387;48.722;9.110;2022-11-20T12:21:49;8.00;99.90
10678;DHT22;5387;48.722;9.110;2022-11-20T12:24:42;7.90;99.90
10678;DHT22;5387;48.722;9.110;2022-11-20T12:27:41;7.70;99.90
10678;DHT22;5387;48.722;9.110;2022-11-20T12:30:11;7.60;99.90
10678;DHT22;5387;48.722;9.110;2022-11-20T12:35:52;7.30;99.90
10678;DHT22;5387;48.722;9.110;2022-11-20T12:38:46;7.20;99.90
10678;DHT22;5387;48.722;9.110;2022-11-20T12:41:28;7.20;99.90
10678;DHT22;5387;48.722;9.110;2022-11-20T12:44:32;7.20;99.90
10678;DHT22;5387;48.722;9.110;2022-11-20T12:47:26;7.30;99.90
10678;DHT22;5387;48.722;9.110;2022-11-20T12:50:02;7.30;99.90
10678;DHT22;5387;48.722;9.110;2022-11-20T12:52:41;7.30;99.90
10678;DHT22;5387;48.722;9.110;2022-11-20T12:55:16;7.30;99.90
10678;DHT22;5387;48.722;9.110;2022-11-20T12:57:50;7.20;99.90
10678;DHT22;5387;48.722;9.110;2022-11-20T13:00:20;7.40;99.90
10678;DHT22;5387;48.722;9.110;2022-11-20T13:03:15;7.50;99.90
10678;DHT22;5387;48.722;9.110;2022-11-20T13:05:55;7.50;99.90
10678;DHT22;5387;48.722;9.110;2022-11-20T13:08:27;7.50;99.90
10678;DHT22;5387;48.722;9.110;2022-11-20T13:11:01;7.80;99.90
10678;DHT22;5387;48.722;9.110;2022-11-20T13:13:34;7.80;99.90
10678;DHT22;5387;48.722;9.110;2022-11-20T13:16:06;7.90;99.90
10678;DHT22;5387;48.722;9.110;2022-11-20T13:18:38;7.90;99.90
10678;DHT22;5387;48.722;9.110;2022-11-20T13:21:15;7.80;99.90
10678;DHT22;5387;48.722;9.110;2022-11-20T13:23:42;7.80;99.90
10678;DHT22;5387;48.722;9.110;2022-11-20T13:26:17;7.70;99.90
10678;DHT22;5387;48.722;9.110;2022-11-20T13:28:46;7.70;99.90
10678;DHT22;5387;48.722;9.110;2022-11-20T13:31:28;7.60;99.90
10678;DHT22;5387;48.722;9.110;2022-11-20T13:33:56;7.80;99.90
10678;DHT22;5387;48.722;9.110;2022-11-20T13:36:25;7.90;99.90
10678;DHT22;5387;48.722;9.110;2022-11-20T13:38:54;7.60;99.90
10678;DHT22;5387;48.722;9.110;2022-11-20T13:41:27;7.80;99.90
10678;DHT22;5387;48.722;9.110;2022-11-20T13:43:56;7.70;99.90
10678;DHT22;5387;48.722;9.110;2022-11-20T13:46:35;7.80;99.90
10678;DHT22;5387;48.722;9.110;2022-11-20T13:49:07;7.90;99.90
10678;DHT22;5387;48.722;9.110;2022-11-20T13:51:40;7.90;99.90
10678;DHT22;5387;48.722;9.110;2022-11-20T13:54:41;8.00;99.90
10678;DHT22;5387;48.722;9.110;2022-11-20T13:57:30;7.80;99.90
10678;DHT22;5387;48.722;9.110;2022-11-20T14:00:09;7.90;99.90
10678;DHT22;5387;48.722;9.110;2022-11-20T14:02:37;7.80;99.90
10678;DHT22;5387;48.722;9.110;2022-11-20T14:05:05;7.70;99.90
10678;DHT22;5387;48.722;9.110;2022-11-20T14:07:35;7.60;99.90
10678;DHT22;5387;48.722;9.110;2022-11-20T14:10:04;7.60;99.90
10678;DHT22;5387;48.722;9.110;2022-11-20T14:12:33;7.60;99.90
10678;DHT22;5387;48.722;9.110;2022-11-20T14:15:02;7.50;99.90
10678;DHT22;5387;48.722;9.110;2022-11-20T14:17:31;7.30;99.90
10678;DHT22;5387;48.722;9.110;2022-11-20T14:20:00;7.20;99.90
10678;DHT22;5387;48.722;9.110;2022-11-20T14:22:28;7.20;99.90
10678;DHT22;5387;48.722;9.110;2022-11-20T14:25:04;7.00;99.90
10678;DHT22;5387;48.722;9.110;2022-11-20T14:27:36;6.90;99.90
10678;DHT22;5387;48.722;9.110;2022-11-20T14:30:04;6.90;99.90
10678;DHT22;5387;48.722;9.110;2022-11-20T14:32:31;7.00;99.90
10678;DHT22;5387;48.722;9.110;2022-11-20T14:35:07;7.00;99.90
10678;DHT22;5387;48.722;9.110;2022-11-20T14:37:37;7.00;99.90
10678;DHT22;5387;48.722;9.110;2022-11-20T14:40:25;6.90;99.90
10678;DHT22;5387;48.722;9.110;2022-11-20T14:42:54;6.80;99.90
10678;DHT22;5387;48.722;9.110;2022-11-20T14:45:21;6.90;99.90
10678;DHT22;5387;48.722;9.110;2022-11-20T14:47:49;7.00;99.90
10678;DHT22;5387;48.722;9.110;2022-11-20T14:50:20;6.90;99.90
10678;DHT22;5387;48.722;9.110;2022-11-20T14:52:52;6.80;99.90
10678;DHT22;5387;48.722;9.110;2022-11-20T14:55:26;6.80;99.90
10678;DHT22;5387;48.722;9.110;2022-11-20T14:57:59;6.70;99.90
10678;DHT22;5387;48.722;9.110;2022-11-20T15:00:27;6.80;99.90
10678;DHT22;5387;48.722;9.110;2022-11-20T15:02:54;6.80;99.90
10678;DHT22;5387;48.722;9.110;2022-11-20T15:05:23;6.70;99.90
10678;DHT22;5387;48.722;9.110;2022-11-20T15:08:03;6.70;99.90
10678;DHT22;5387;48.722;9.110;2022-11-20T15:10:30;6.60;99.90
10678;DHT22;5387;48.722;9.110;2022-11-20T15:13:01;6.50;99.90
10678;DHT22;5387;48.722;9.110;2022-11-20T15:15:31;6.40;99.90
10678;DHT22;5387;48.722;9.110;2022-11-20T15:17:59;6.20;99.90
10678;DHT22;5387;48.722;9.110;2022-11-20T15:20:29;6.10;99.90
10678;DHT22;5387;48.722;9.110;2022-11-20T15:22:56;6.10;99.90
10678;DHT22;5387;48.722;9.110;2022-11-20T15:25:23;6.00;99.90
10678;DHT22;5387;48.722;9.110;2022-11-20T15:27:53;6.00;99.90
10678;DHT22;5387;48.722;9.110;2022-11-20T15:30:22;5.90;99.90
10678;DHT22;5387;48.722;9.110;2022-11-20T15:32:49;5.90;99.90
10678;DHT22;5387;48.722;9.110;2022-11-20T15:35:16;6.00;99.90
10678;DHT22;5387;48.722;9.110;2022-11-20T15:37:43;5.90;99.90
10678;DHT22;5387;48.722;9.110;2022-11-20T15:40:11;5.90;99.90
10678;DHT22;5387;48.722;9.110;2022-11-20T15:42:38;5.90;99.90
10678;DHT22;5387;48.722;9.110;2022-11-20T15:45:28;6.00;99.90
10678;DHT22;5387;48.722;9.110;2022-11-20T15:47:55;5.90;99.90
10678;DHT22;5387;48.722;9.110;2022-11-20T15:50:27;6.00;99.90
10678;DHT22;5387;48.722;9.110;2022-11-20T15:52:55;5.90;99.90
10678;DHT22;5387;48.722;9.110;2022-11-20T15:55:22;5.90;99.90
10678;DHT22;5387;48.722;9.110;2022-11-20T15:57:49;6.00;99.90
10678;DHT22;5387;48.722;9.110;2022-11-20T16:00:17;5.80;99.90
10678;DHT22;5387;48.722;9.110;2022-11-20T16:02:45;5.70;99.90
10678;DHT22;5387;48.722;9.110;2022-11-20T16:05:12;5.80;99.90
10678;DHT22;5387;48.722;9.110;2022-11-20T16:07:40;5.80;99.90
10678;DHT22;5387;48.722;9.110;2022-11-20T16:10:07;5.80;99.90
10678;DHT22;5387;48.722;9.110;2022-11-20T16:12:34;5.90;99.90
10678;DHT22;5387;48.722;9.110;2022-11-20T16:15:19;5.80;99.90
10678;DHT22;5387;48.722;9.110;2022-11-20T16:18:06;5.90;99.90
10678;DHT22;5387;48.722;9.110;2022-11-20T16:20:33;5.90;99.90
10678;DHT22;5387;48.722;9.110;2022-11-20T16:23:00;5.80;99.90
10678;DHT22;5387;48.722;9.110;2022-11-20T16:25:27;5.80;99.90
10678;DHT22;5387;48.722;9.110;2022-11-20T16:27:54;5.90;99.90
10678;DHT22;5387;48.722;9.110;2022-11-20T16:30:21;5.90;99.90
10678;DHT22;5387;48.722;9.110;2022-11-20T16:32:48;5.80;99.90